Terminal Aerodrome Forecast
Issued by NWS

Home | Current Version | Previous Version | Text Only | Print | Product List | Glossary On
Versions: 1 2 3 4 5 6 7 8 9 10 11 12 13 14 15 16 17 18 19 20 21 22 23 24 25 26 27 28 29 30 31 32
000
FTUS41 KBOX 280525
TAFFMH
TAF
KFMH 280525Z 2806/2906 20005KT P6SM SCT090
     FM280800 22005KT 5SM BR BKN003
     FM281400 23006KT P6SM SCT050
     FM282100 22011KT P6SM BKN050
     FM282300 22008KT P6SM SCT050
     FM290400 24004KT 6SM BR SCT050=

USA.gov is the U.S. government's official web portal to all federal, state and local government web resources and services.